Voyager Of The Seas — C6SE5 — position and weather

sailwx.info

Track history (hours):
 
Tides and Currents Weather Stations Pressure Air Temp Water Temp Dewpoint Dewpoint Depression Visibility Wind Speed Wind Dir Waves Ship Positions

Voyager Of The Seas

Operator: Royal Caribbean Cruises Ltd

Last reported at 2016-Aug-19 23:22 UTC. Time now 2016-Aug-25 20:11 UTC.
Position N 24°11' E 119°07'.

Type: Passenger vessel. MMSI: 311317000.

Date/timePositionNaut miles runAvg speedWind from/ knotsBaromVisibWave heightAir tempDewpointWater temp
2016-Aug-19 23:22N 24°11' E 119°07'1921.9
2016-Aug-19 22:31N 23°60' E 118°51'2121.0
2016-Aug-19 21:32N 23°48' E 118°33'24120.1
2016-Aug-19 09:33N 22°13' E 114°31'1515.6
2016-Aug-19 08:33N 22°16' E 114°15'3 2.7
2016-Aug-19 07:28N 22°18' E 114°13'0 0.0
2016-Aug-19 06:25N 22°18' E 114°13'0 0.0
2016-Aug-19 04:19N 22°18' E 114°13'0 0.0
2016-Aug-19 03:22N 22°18' E 114°13'0 0.0
2016-Aug-19 02:31N 22°18' E 114°13'0 0.0
2016-Aug-19 01:13N 22°18' E 114°13'0 0.0
2016-Aug-19 00:10N 22°18' E 114°13'0 0.0
2016-Aug-18 23:34N 22°18' E 114°13'0 0.4
2016-Aug-18 22:33N 22°18' E 114°13'1010.6
2016-Aug-18 21:33N 22°11' E 114°22'49611.0
2016-Aug-17 00:33N 16°09' E 108°23'  
2016-Aug-13 22:33N 22°18' E 114°13'  
2016-Aug-10 02:09N 24°22' E 119°32'1219.3
2016-Aug-10 01:33N 24°16' E 119°21'2419.0
2016-Aug-10 00:17N 24°01' E 119°00'1419.0
2016-Aug-09 23:33N 23°54' E 118°47'  
Track history (hours):
 
Tides and Currents Weather Stations Pressure Air Temp Water Temp Dewpoint Dewpoint Depression Visibility Wind Speed Wind Dir Waves Ship Positions

Voyager Of The Seas

Operator: Royal Caribbean Cruises Ltd

Last reported at 2016-Aug-19 23:22 UTC. Time now 2016-Aug-25 20:11 UTC.
Position N 24°11' E 119°07'.

Type: Passenger vessel. MMSI: 311317000.

Date/timePositionNaut miles runAvg speedWind from/ knotsBaromVisibWave heightAir tempDewpointWater temp
2016-Aug-19 23:22N 24°11' E 119°07'1921.9
2016-Aug-19 22:31N 23°60' E 118°51'2121.0
2016-Aug-19 21:32N 23°48' E 118°33'24120.1
2016-Aug-19 09:33N 22°13' E 114°31'1515.6
2016-Aug-19 08:33N 22°16' E 114°15'3 2.7
2016-Aug-19 07:28N 22°18' E 114°13'0 0.0
2016-Aug-19 06:25N 22°18' E 114°13'0 0.0
2016-Aug-19 04:19N 22°18' E 114°13'0 0.0
2016-Aug-19 03:22N 22°18' E 114°13'0 0.0
2016-Aug-19 02:31N 22°18' E 114°13'0 0.0
2016-Aug-19 01:13N 22°18' E 114°13'0 0.0
2016-Aug-19 00:10N 22°18' E 114°13'0 0.0
2016-Aug-18 23:34N 22°18' E 114°13'0 0.4
2016-Aug-18 22:33N 22°18' E 114°13'1010.6
2016-Aug-18 21:33N 22°11' E 114°22'49611.0
2016-Aug-17 00:33N 16°09' E 108°23'  
2016-Aug-13 22:33N 22°18' E 114°13'  
2016-Aug-10 02:09N 24°22' E 119°32'1219.3
2016-Aug-10 01:33N 24°16' E 119°21'2419.0
2016-Aug-10 00:17N 24°01' E 119°00'1419.0
2016-Aug-09 23:33N 23°54' E 118°47'  

Dump ship's entire track history